createdAt,value
2022-10-01T00:02:02.512Z,3.20
2022-10-01T00:04:29.229Z,3.35
2022-10-01T00:06:59.167Z,3.35
2022-10-01T00:09:26.447Z,3.10
2022-10-01T00:11:53.607Z,2.83
2022-10-01T00:14:20.647Z,3.22
2022-10-01T00:16:47.342Z,2.78
2022-10-01T00:19:15.065Z,3.17
2022-10-01T00:21:42.324Z,2.58
2022-10-01T00:24:12.451Z,3.00
2022-10-01T00:26:39.538Z,3.33
2022-10-01T00:29:10.295Z,2.75
2022-10-01T00:31:39.559Z,2.90
2022-10-01T00:34:06.592Z,3.38
2022-10-01T00:36:34.338Z,3.03
2022-10-01T00:39:01.921Z,3.33
2022-10-01T00:41:31.946Z,3.10
2022-10-01T00:44:02.855Z,2.95
2022-10-01T00:46:39.015Z,2.95
2022-10-01T00:49:11.381Z,3.10
2022-10-01T00:51:43.887Z,2.90
2022-10-01T00:54:14.522Z,2.58
2022-10-01T00:56:43.376Z,2.88
2022-10-01T00:59:12.152Z,3.00
2022-10-01T01:01:39.344Z,3.00
2022-10-01T01:04:16.487Z,2.90
2022-10-01T01:06:53.734Z,2.92
2022-10-01T01:09:21.352Z,2.85
2022-10-01T01:12:14.775Z,3.00
2022-10-01T01:15:04.814Z,3.15
2022-10-01T01:18:02.250Z,3.35
2022-10-01T01:21:00.621Z,3.00
2022-10-01T01:24:01.567Z,2.90
2022-10-01T01:27:06.133Z,2.80
2022-10-01T01:29:49.923Z,3.10
2022-10-01T01:32:28.343Z,2.55
2022-10-01T01:34:57.718Z,2.92
2022-10-01T01:37:28.461Z,3.15
2022-10-01T01:39:58.621Z,2.50
2022-10-01T01:42:31.276Z,3.10
2022-10-01T01:45:00.979Z,3.05
2022-10-01T01:47:30.500Z,2.90
2022-10-01T01:49:58.461Z,2.85
2022-10-01T01:52:25.064Z,3.35
2022-10-01T01:54:51.711Z,2.95
2022-10-01T01:57:20.213Z,3.00
2022-10-01T01:59:47.106Z,2.95
2022-10-01T02:02:28.704Z,2.80
2022-10-01T02:05:03.500Z,3.08
2022-10-01T02:07:38.375Z,3.25
2022-10-01T02:10:21.912Z,2.72
2022-10-01T02:13:04.768Z,2.67
2022-10-01T02:15:52.286Z,2.65
2022-10-01T02:18:42.089Z,2.80
2022-10-01T02:21:38.484Z,2.70
2022-10-01T02:24:21.312Z,2.57
2022-10-01T02:26:50.890Z,3.10
2022-10-01T02:29:21.689Z,2.80
2022-10-01T02:31:53.378Z,3.00
2022-10-01T02:34:21.954Z,3.00
2022-10-01T02:36:50.335Z,2.80
2022-10-01T02:39:19.064Z,2.88
2022-10-01T02:41:52.631Z,2.80
2022-10-01T02:44:24.033Z,2.90
2022-10-01T02:47:07.827Z,2.97
2022-10-01T02:49:36.853Z,2.80
2022-10-01T02:52:25.332Z,2.80
2022-10-01T02:54:59.402Z,2.40
2022-10-01T02:57:29.660Z,2.80
2022-10-01T02:59:59.826Z,2.45
2022-10-01T03:02:29.073Z,2.38
2022-10-01T03:04:57.472Z,2.65
2022-10-01T03:07:29.970Z,2.50
2022-10-01T03:09:57.161Z,2.80
2022-10-01T03:12:23.862Z,2.72
2022-10-01T03:14:50.471Z,2.55
2022-10-01T03:17:17.745Z,2.42
2022-10-01T03:19:44.597Z,2.92
2022-10-01T03:22:18.121Z,2.58
2022-10-01T03:24:44.832Z,2.45
2022-10-01T03:27:11.346Z,2.90
2022-10-01T03:29:37.951Z,2.60
2022-10-01T03:32:04.505Z,2.70
2022-10-01T03:34:31.023Z,2.63
2022-10-01T03:36:57.559Z,2.55
2022-10-01T03:39:24.376Z,2.45
2022-10-01T03:41:50.986Z,2.47
2022-10-01T03:44:17.791Z,2.40
2022-10-01T03:46:44.446Z,2.40
2022-10-01T03:49:11.057Z,2.67
2022-10-01T03:51:37.969Z,2.50
2022-10-01T03:54:06.648Z,2.30
2022-10-01T03:56:33.971Z,2.45
2022-10-01T03:59:00.679Z,2.22
2022-10-01T04:01:27.515Z,2.38
2022-10-01T04:03:54.377Z,2.20
2022-10-01T04:06:20.882Z,2.40
2022-10-01T04:08:47.591Z,2.30
2022-10-01T04:11:14.304Z,2.13
2022-10-01T04:13:41.065Z,2.13
2022-10-01T04:16:08.363Z,2.13
2022-10-01T04:18:35.178Z,2.50
2022-10-01T04:21:01.822Z,3.28
2022-10-01T04:23:28.491Z,2.60
2022-10-01T04:25:57.967Z,2.30
2022-10-01T04:28:24.516Z,2.40
2022-10-01T04:31:11.138Z,2.53
2022-10-01T04:33:37.658Z,2.33
2022-10-01T04:36:04.328Z,2.63
2022-10-01T04:38:30.859Z,2.40
2022-10-01T04:40:57.387Z,2.30
2022-10-01T04:43:24.270Z,2.40
2022-10-01T04:45:53.470Z,2.47
2022-10-01T04:48:20.088Z,2.47
2022-10-01T04:50:46.564Z,2.50
2022-10-01T04:53:13.103Z,2.45
2022-10-01T04:55:40.058Z,2.47
2022-10-01T04:58:06.644Z,2.85
2022-10-01T05:00:33.222Z,2.55
2022-10-01T05:02:59.751Z,3.10
2022-10-01T05:05:28.147Z,3.35
2022-10-01T05:07:55.051Z,2.70
2022-10-01T05:10:22.906Z,2.90
2022-10-01T05:12:51.672Z,2.58
2022-10-01T05:15:19.173Z,3.10
2022-10-01T05:17:46.679Z,3.00
2022-10-01T05:20:22.566Z,2.72
2022-10-01T05:22:49.568Z,2.88
2022-10-01T05:25:17.048Z,2.85
2022-10-01T05:27:43.751Z,2.83
2022-10-01T05:30:12.357Z,2.85
2022-10-01T05:32:39.388Z,2.50
2022-10-01T05:35:07.585Z,2.85
2022-10-01T05:37:34.959Z,3.15
2022-10-01T05:40:02.324Z,3.17
2022-10-01T05:42:28.860Z,2.90
2022-10-01T05:44:56.109Z,3.10
2022-10-01T05:47:22.931Z,3.20
2022-10-01T05:49:49.526Z,3.40
2022-10-01T05:52:16.698Z,3.78
2022-10-01T05:54:43.550Z,3.00
2022-10-01T05:57:10.678Z,2.97
2022-10-01T05:59:37.261Z,3.00
2022-10-01T06:02:04.417Z,3.22
2022-10-01T06:04:31.379Z,3.03
2022-10-01T06:06:58.189Z,3.20
2022-10-01T06:09:24.714Z,3.30
2022-10-01T06:11:51.603Z,3.50
2022-10-01T06:14:18.402Z,3.35
2022-10-01T06:16:44.978Z,3.10
2022-10-01T06:19:11.538Z,3.50
2022-10-01T06:21:38.226Z,3.55
2022-10-01T06:24:05.810Z,4.10
2022-10-01T06:26:32.358Z,4.07
2022-10-01T06:28:58.893Z,3.80
2022-10-01T06:31:25.532Z,4.00
2022-10-01T06:33:52.079Z,3.50
2022-10-01T06:36:18.793Z,3.40
2022-10-01T06:38:49.242Z,3.75
2022-10-01T06:41:15.801Z,4.20
2022-10-01T06:43:42.334Z,3.65
2022-10-01T06:46:08.941Z,3.58
2022-10-01T06:48:36.592Z,3.50
2022-10-01T06:51:03.699Z,3.85
2022-10-01T06:53:31.912Z,3.60
2022-10-01T06:56:04.158Z,3.50
2022-10-01T06:58:30.732Z,3.40
2022-10-01T07:01:02.124Z,3.20
2022-10-01T07:03:29.832Z,3.40
2022-10-01T07:06:02.862Z,3.30
2022-10-01T07:08:29.680Z,3.42
2022-10-01T07:11:02.927Z,3.03
2022-10-01T07:13:29.662Z,3.00
2022-10-01T07:15:56.346Z,3.08
2022-10-01T07:18:23.347Z,3.50
2022-10-01T07:20:49.827Z,4.18
2022-10-01T07:23:16.759Z,3.17
2022-10-01T07:25:43.709Z,3.03
2022-10-01T07:28:18.136Z,3.53
2022-10-01T07:31:12.205Z,3.50
2022-10-01T07:33:39.659Z,2.90
2022-10-01T07:36:07.794Z,3.10
2022-10-01T07:38:35.189Z,3.15
2022-10-01T07:41:05.102Z,4.28
2022-10-01T07:43:33.119Z,4.18
2022-10-01T07:46:00.264Z,4.15
2022-10-01T07:48:27.939Z,3.90
2022-10-01T07:50:54.522Z,3.30
2022-10-01T07:53:23.412Z,3.30
2022-10-01T07:55:50.012Z,3.38
2022-10-01T07:58:16.704Z,3.30
2022-10-01T08:00:43.505Z,2.97
2022-10-01T08:03:12.153Z,3.00
2022-10-01T08:05:41.295Z,3.35
2022-10-01T08:08:08.879Z,3.55
2022-10-01T08:10:37.991Z,3.55
2022-10-01T08:13:14.578Z,2.80
2022-10-01T08:15:46.973Z,2.80
2022-10-01T08:18:14.383Z,2.88
2022-10-01T08:20:41.806Z,2.95
2022-10-01T08:23:14.737Z,2.80
2022-10-01T08:25:43.143Z,3.10
2022-10-01T08:28:11.130Z,3.45
2022-10-01T08:30:42.347Z,2.65
2022-10-01T08:33:11.825Z,2.70
2022-10-01T08:35:40.372Z,3.15
2022-10-01T08:38:07.477Z,2.75
2022-10-01T08:40:38.568Z,2.70
2022-10-01T08:43:29.600Z,3.08
2022-10-01T08:46:01.007Z,3.00
2022-10-01T08:48:36.664Z,2.72
2022-10-01T08:51:28.936Z,5.65
2022-10-01T08:54:17.256Z,5.22
2022-10-01T08:56:46.420Z,2.50
2022-10-01T08:59:31.807Z,2.30
2022-10-01T09:01:59.261Z,2.38
2022-10-01T09:04:27.918Z,2.40
2022-10-01T09:07:17.478Z,2.30
2022-10-01T09:09:51.701Z,2.55
2022-10-01T09:12:47.559Z,2.40
2022-10-01T09:15:25.082Z,2.20
2022-10-01T09:18:20.222Z,2.20
2022-10-01T09:20:57.337Z,1.98
2022-10-01T09:23:28.602Z,1.85
2022-10-01T09:25:59.934Z,1.80
2022-10-01T09:28:34.874Z,1.80
2022-10-01T09:31:20.813Z,2.05
2022-10-01T09:34:28.921Z,2.00
2022-10-01T09:37:14.769Z,2.08
2022-10-01T09:40:01.634Z,2.30
2022-10-01T09:44:57.869Z,1.88
2022-10-01T09:47:25.819Z,2.15
2022-10-01T09:49:52.535Z,2.20
2022-10-01T09:52:33.491Z,2.30
2022-10-01T09:55:05.207Z,2.55
2022-10-01T09:57:36.126Z,2.38
2022-10-01T10:00:29.919Z,2.22
2022-10-01T10:02:56.752Z,2.70
2022-10-01T10:05:25.812Z,2.72
2022-10-01T10:07:59.577Z,2.78
2022-10-01T10:10:35.523Z,2.97
2022-10-01T10:13:21.617Z,3.20
2022-10-01T10:15:56.449Z,4.20
2022-10-01T10:18:38.438Z,4.00
2022-10-01T10:21:14.430Z,4.07
2022-10-01T10:23:59.537Z,4.20
2022-10-01T10:26:35.223Z,4.53
2022-10-01T10:29:04.085Z,4.90
2022-10-01T10:31:47.162Z,4.40
2022-10-01T10:34:19.157Z,4.47
2022-10-01T10:36:49.795Z,4.45
2022-10-01T10:39:25.014Z,4.60
2022-10-01T10:41:53.422Z,4.63
2022-10-01T10:44:22.250Z,4.20
2022-10-01T10:46:52.138Z,4.80
2022-10-01T10:49:30.022Z,5.15
2022-10-01T10:52:01.011Z,5.60
2022-10-01T10:54:33.104Z,4.68
2022-10-01T10:57:02.869Z,4.95
2022-10-01T10:59:33.972Z,4.60
2022-10-01T11:02:08.194Z,4.57
2022-10-01T11:04:42.683Z,4.35
2022-10-01T11:07:11.587Z,4.95
2022-10-01T11:09:44.223Z,4.40
2022-10-01T11:13:03.456Z,4.10
2022-10-01T11:15:59.155Z,4.47
2022-10-01T11:18:48.160Z,4.63
2022-10-01T11:21:33.554Z,3.78
2022-10-01T11:24:03.022Z,3.97
2022-10-01T11:26:53.541Z,3.55
2022-10-01T11:29:40.683Z,4.03
2022-10-01T11:32:29.306Z,4.13
2022-10-01T11:35:50.419Z,3.58
2022-10-01T11:38:38.227Z,4.15
2022-10-01T11:41:26.735Z,3.53
2022-10-01T11:43:56.733Z,3.97
2022-10-01T11:46:23.344Z,3.90
2022-10-01T11:48:57.264Z,3.30
2022-10-01T11:51:29.179Z,3.33
2022-10-01T11:54:04.517Z,3.38
2022-10-01T11:56:54.508Z,3.17
2022-10-01T11:59:37.467Z,3.20
2022-10-01T12:02:16.671Z,2.90
2022-10-01T12:04:46.891Z,2.75
2022-10-01T12:07:21.663Z,3.25
2022-10-01T12:10:14.577Z,2.83
2022-10-01T12:13:07.400Z,2.60
2022-10-01T12:15:44.786Z,2.55
2022-10-01T12:18:15.756Z,2.13
2022-10-01T12:20:53.460Z,2.30
2022-10-01T12:23:23.425Z,2.42
2022-10-01T12:26:05.080Z,2.97
2022-10-01T12:28:53.625Z,2.20
2022-10-01T12:31:55.593Z,2.45
2022-10-01T12:35:11.423Z,2.90
2022-10-01T12:37:55.015Z,2.17
2022-10-01T12:40:26.495Z,1.83
2022-10-01T12:43:14.023Z,2.15
2022-10-01T12:46:06.259Z,1.90
2022-10-01T12:48:54.977Z,1.70
2022-10-01T12:51:27.488Z,1.85
2022-10-01T12:54:30.920Z,1.80
2022-10-01T12:57:05.662Z,1.67
2022-10-01T12:59:47.290Z,2.00
2022-10-01T13:02:53.883Z,1.90
2022-10-01T13:05:29.564Z,1.25
2022-10-01T13:08:18.170Z,1.35
2022-10-01T13:11:26.605Z,1.45
2022-10-01T13:13:54.918Z,1.48
2022-10-01T13:16:40.820Z,1.65
2022-10-01T13:19:19.728Z,1.55
2022-10-01T13:22:00.103Z,1.60
2022-10-01T13:24:38.920Z,1.50
2022-10-01T13:27:17.576Z,1.95
2022-10-01T13:29:43.968Z,1.98
2022-10-01T13:32:35.163Z,1.20
2022-10-01T13:35:23.046Z,1.40
2022-10-01T13:37:49.591Z,1.20
2022-10-01T13:40:35.386Z,1.27
2022-10-01T13:43:23.035Z,1.10
2022-10-01T13:45:52.117Z,1.23
2022-10-01T13:48:26.386Z,1.17
2022-10-01T13:51:05.092Z,1.20
2022-10-01T13:53:36.311Z,1.27
2022-10-01T13:56:04.200Z,1.10
2022-10-01T13:58:33.665Z,1.00
2022-10-01T14:01:04.225Z,1.30
2022-10-01T14:03:38.676Z,1.02
2022-10-01T14:06:08.311Z,1.30
2022-10-01T14:08:39.547Z,1.20
2022-10-01T14:11:31.487Z,1.10
2022-10-01T14:14:23.434Z,1.50
2022-10-01T14:16:50.062Z,1.38
2022-10-01T14:19:23.415Z,1.20
2022-10-01T14:22:08.146Z,1.20
2022-10-01T14:25:12.204Z,1.10
2022-10-01T14:28:06.746Z,1.10
2022-10-01T14:31:05.641Z,1.10
2022-10-01T14:33:59.624Z,1.30
2022-10-01T14:36:28.479Z,1.52
2022-10-01T14:39:18.599Z,1.20
2022-10-01T14:41:47.421Z,1.50
2022-10-01T14:44:19.234Z,1.10
2022-10-01T14:46:45.855Z,1.15
2022-10-01T14:49:21.502Z,1.00
2022-10-01T14:52:08.108Z,1.10
2022-10-01T14:55:02.278Z,1.15
2022-10-01T14:57:34.735Z,1.30
2022-10-01T15:00:08.661Z,1.52
2022-10-01T15:02:46.413Z,1.00
2022-10-01T15:05:30.153Z,1.70
2022-10-01T15:07:57.006Z,1.10
2022-10-01T15:10:28.026Z,1.10
2022-10-01T15:12:55.622Z,1.20
2022-10-01T15:15:39.640Z,1.05
2022-10-01T15:18:07.042Z,1.20
2022-10-01T15:20:34.809Z,1.40
2022-10-01T15:23:04.960Z,1.50
2022-10-01T15:25:32.414Z,1.20
2022-10-01T15:27:59.242Z,1.40
2022-10-01T15:30:27.669Z,1.52
2022-10-01T15:32:54.788Z,1.20
2022-10-01T15:35:23.550Z,1.60
2022-10-01T15:37:51.601Z,1.52
2022-10-01T15:40:30.672Z,1.40
2022-10-01T15:43:15.513Z,1.48
2022-10-01T15:45:42.521Z,1.42
2022-10-01T15:48:29.127Z,1.50
2022-10-01T15:51:01.455Z,1.77
2022-10-01T15:53:28.680Z,1.48
2022-10-01T15:55:59.048Z,1.50
2022-10-01T15:58:35.713Z,1.80
2022-10-01T16:01:12.205Z,1.67
2022-10-01T16:03:42.368Z,1.63
2022-10-01T16:06:23.670Z,1.55
2022-10-01T16:09:25.548Z,1.50
2022-10-01T16:11:56.848Z,1.65
2022-10-01T16:14:42.728Z,1.45
2022-10-01T16:17:18.315Z,1.57
2022-10-01T16:19:45.693Z,1.48
2022-10-01T16:22:33.051Z,1.35
2022-10-01T16:25:07.492Z,1.50
2022-10-01T16:27:43.979Z,1.63
2022-10-01T16:30:23.094Z,1.63
2022-10-01T16:32:50.689Z,1.42
2022-10-01T16:35:22.813Z,1.73
2022-10-01T16:37:51.327Z,1.40
2022-10-01T16:40:20.864Z,1.50
2022-10-01T16:42:50.535Z,1.80
2022-10-01T16:45:25.491Z,1.40
2022-10-01T16:47:54.613Z,1.50
2022-10-01T16:50:22.654Z,1.70
2022-10-01T16:52:55.983Z,1.50
2022-10-01T16:55:36.297Z,1.60
2022-10-01T16:58:04.540Z,2.60
2022-10-01T17:00:32.177Z,1.83
2022-10-01T17:03:02.295Z,1.83
2022-10-01T17:05:35.408Z,2.05
2022-10-01T17:08:03.522Z,1.50
2022-10-01T17:10:35.793Z,1.58
2022-10-01T17:13:03.669Z,1.60
2022-10-01T17:15:31.056Z,1.60
2022-10-01T17:17:58.883Z,1.50
2022-10-01T17:20:31.020Z,1.60
2022-10-01T17:22:58.503Z,1.70
2022-10-01T17:25:32.259Z,1.50
2022-10-01T17:28:01.148Z,1.70
2022-10-01T17:30:29.308Z,2.17
2022-10-01T17:32:57.136Z,1.90
2022-10-01T17:35:23.950Z,2.72
2022-10-01T17:37:50.515Z,2.78
2022-10-01T17:40:17.332Z,2.95
2022-10-01T17:42:44.030Z,2.35
2022-10-01T17:45:13.359Z,2.10
2022-10-01T17:47:45.362Z,2.20
2022-10-01T17:50:12.952Z,2.47
2022-10-01T17:52:39.699Z,4.43
2022-10-01T17:55:07.120Z,4.40
2022-10-01T17:57:34.274Z,6.30
2022-10-01T18:00:01.145Z,3.80
2022-10-01T18:02:41.549Z,2.40
2022-10-01T18:05:12.220Z,2.03
2022-10-01T18:07:39.232Z,2.10
2022-10-01T18:10:07.710Z,1.80
2022-10-01T18:12:34.566Z,2.50
2022-10-01T18:15:02.178Z,2.70
2022-10-01T18:17:32.093Z,2.53
2022-10-01T18:19:59.038Z,2.67
2022-10-01T18:22:29.628Z,2.15
2022-10-01T18:24:56.325Z,2.30
2022-10-01T18:27:22.961Z,2.40
2022-10-01T18:29:49.746Z,2.25
2022-10-01T18:32:36.714Z,2.55
2022-10-01T18:35:13.486Z,3.10
2022-10-01T18:38:07.902Z,2.45
2022-10-01T18:40:43.490Z,2.60
2022-10-01T18:43:21.823Z,2.60
2022-10-01T18:45:48.498Z,2.63
2022-10-01T18:48:30.786Z,1.77
2022-10-01T18:51:32.383Z,2.30
2022-10-01T18:54:20.800Z,2.65
2022-10-01T18:57:37.328Z,2.80
2022-10-01T19:00:09.552Z,2.22
2022-10-01T19:02:56.230Z,2.03
2022-10-01T19:08:46.685Z,2.33
2022-10-01T19:11:40.154Z,2.38
2022-10-01T19:14:30.731Z,11.20
2022-10-01T19:17:06.174Z,3.83
2022-10-01T19:20:09.975Z,2.80
2022-10-01T19:22:42.295Z,2.25
2022-10-01T19:25:25.080Z,2.33
2022-10-01T19:28:16.653Z,2.40
2022-10-01T19:31:12.519Z,3.20
2022-10-01T19:33:46.737Z,2.53
2022-10-01T19:36:24.418Z,2.72
2022-10-01T19:38:53.863Z,2.70
2022-10-01T19:41:36.954Z,2.60
2022-10-01T19:44:15.273Z,2.58
2022-10-01T19:46:45.481Z,2.50
2022-10-01T19:49:20.769Z,2.40
2022-10-01T19:51:58.842Z,2.40
2022-10-01T19:54:38.814Z,2.60
2022-10-01T19:57:20.791Z,2.25
2022-10-01T19:59:47.788Z,1.92
2022-10-01T20:02:39.994Z,2.28
2022-10-01T20:05:21.979Z,1.77
2022-10-01T20:08:05.650Z,2.28
2022-10-01T20:10:50.127Z,2.13
2022-10-01T20:13:47.656Z,2.00
2022-10-01T20:16:27.223Z,2.22
2022-10-01T20:19:04.575Z,2.03
2022-10-01T20:21:40.075Z,2.33
2022-10-01T20:24:36.964Z,2.00
2022-10-01T20:27:37.631Z,1.98
2022-10-01T20:30:21.265Z,1.90
2022-10-01T20:33:21.330Z,2.13
2022-10-01T20:36:01.791Z,2.20
2022-10-01T20:38:35.272Z,2.03
2022-10-01T20:41:09.499Z,2.10
2022-10-01T20:43:37.982Z,2.20
2022-10-01T20:46:11.964Z,1.92
2022-10-01T20:48:43.934Z,1.88
2022-10-01T20:51:17.225Z,1.73
2022-10-01T20:53:53.775Z,2.05
2022-10-01T20:56:30.865Z,1.50
2022-10-01T20:59:23.463Z,1.77
2022-10-01T21:02:02.914Z,2.45
2022-10-01T21:04:37.609Z,3.65
2022-10-01T21:07:19.438Z,2.53
2022-10-01T21:09:48.868Z,2.13
2022-10-01T21:12:29.589Z,1.73
2022-10-01T21:14:57.209Z,1.40
2022-10-01T21:17:49.059Z,1.88
2022-10-01T21:20:38.829Z,1.80
2022-10-01T21:23:12.666Z,1.88
2022-10-01T21:26:02.219Z,2.45
2022-10-01T21:28:56.192Z,2.13
2022-10-01T21:31:41.766Z,1.90
2022-10-01T21:34:39.701Z,1.90
2022-10-01T21:37:21.230Z,2.25
2022-10-01T21:40:10.384Z,1.63
2022-10-01T21:42:42.871Z,2.00
2022-10-01T21:45:57.994Z,1.75
2022-10-01T21:48:53.392Z,2.78
2022-10-01T21:51:28.463Z,2.25
2022-10-01T21:54:18.338Z,1.90
2022-10-01T21:57:28.441Z,2.08
2022-10-01T22:00:12.004Z,1.70
2022-10-01T22:03:10.546Z,1.65
2022-10-01T22:05:37.294Z,1.80
2022-10-01T22:08:27.726Z,1.70
2022-10-01T22:11:02.709Z,1.63
2022-10-01T22:13:38.970Z,2.03
2022-10-01T22:16:13.715Z,1.85
2022-10-01T22:18:52.831Z,1.60
2022-10-01T22:21:35.417Z,1.95
2022-10-01T22:24:07.404Z,1.73
2022-10-01T22:26:39.649Z,2.22
2022-10-01T22:29:14.564Z,1.58
2022-10-01T22:31:44.544Z,1.55
2022-10-01T22:34:20.353Z,1.88
2022-10-01T22:37:00.106Z,2.30
2022-10-01T22:39:31.833Z,1.70
2022-10-01T22:42:05.211Z,1.90
2022-10-01T22:44:31.778Z,1.77
2022-10-01T22:47:24.574Z,1.50
2022-10-01T22:49:54.015Z,2.03
2022-10-01T22:52:45.244Z,1.70
2022-10-01T22:55:30.699Z,1.90
2022-10-01T22:57:57.333Z,1.70
2022-10-01T23:00:24.169Z,2.30
2022-10-01T23:03:21.925Z,1.92
2022-10-01T23:06:01.857Z,1.88
2022-10-01T23:08:31.199Z,1.63
2022-10-01T23:11:03.751Z,1.73
2022-10-01T23:13:33.232Z,1.90
2022-10-01T23:16:09.411Z,1.95
2022-10-01T23:21:28.054Z,1.92
2022-10-01T23:24:20.896Z,1.67
2022-10-01T23:27:03.287Z,2.10
2022-10-01T23:29:52.814Z,2.08
2022-10-01T23:32:31.593Z,1.92
2022-10-01T23:35:14.792Z,2.15
2022-10-01T23:38:09.211Z,1.90
2022-10-01T23:40:41.762Z,2.45
2022-10-01T23:43:33.059Z,2.20
2022-10-01T23:46:11.319Z,2.00
2022-10-01T23:49:04.745Z,1.83
2022-10-01T23:51:37.871Z,1.50
2022-10-01T23:54:44.595Z,1.80
2022-10-01T23:57:32.097Z,2.20
